createdAt,value
2023-03-04T00:01:05.607Z,85
2023-03-04T00:16:04.982Z,80
2023-03-04T00:31:05.110Z,95
2023-03-04T00:46:05.406Z,94
2023-03-04T01:01:05.511Z,93
2023-03-04T01:16:04.880Z,102
2023-03-04T01:31:05.322Z,92
2023-03-04T01:46:05.847Z,108
2023-03-04T02:01:05.592Z,118
2023-03-04T02:16:05.034Z,122
2023-03-04T02:31:05.203Z,125
2023-03-04T02:46:05.507Z,131
2023-03-04T03:01:05.522Z,125
2023-03-04T03:16:05.804Z,122
2023-03-04T03:31:05.003Z,72
2023-03-04T03:46:05.676Z,90
2023-03-04T04:01:04.974Z,103
2023-03-04T04:16:05.417Z,141
2023-03-04T04:31:05.255Z,120
2023-03-04T04:46:05.357Z,124
2023-03-04T05:01:05.646Z,140
2023-03-04T05:16:06.059Z,130
2023-03-04T05:31:05.329Z,126
2023-03-04T05:46:05.554Z,119
2023-03-04T06:01:05.640Z,111
2023-03-04T06:16:05.780Z,89
2023-03-04T06:31:05.044Z,86
2023-03-04T06:46:05.301Z,82
2023-03-04T07:01:04.707Z,67
2023-03-04T07:16:04.949Z,96
2023-03-04T07:31:05.086Z,74
2023-03-04T07:46:05.453Z,55
2023-03-04T08:01:04.810Z,52
2023-03-04T08:16:04.978Z,48
2023-03-04T08:31:05.426Z,70
2023-03-04T08:46:05.551Z,51
2023-03-04T09:01:05.530Z,55
2023-03-04T09:16:05.661Z,80
2023-03-04T09:31:05.132Z,92
2023-03-04T09:46:05.285Z,77
2023-03-04T10:01:05.722Z,65
2023-03-04T10:16:05.196Z,69
2023-03-04T10:31:05.218Z,71
2023-03-04T10:46:05.140Z,61
2023-03-04T11:01:05.188Z,67
2023-03-04T11:16:05.632Z,69
2023-03-04T11:31:05.532Z,74
2023-03-04T11:46:05.252Z,91
2023-03-04T12:01:05.461Z,91
2023-03-04T12:16:05.360Z,87
2023-03-04T12:31:05.543Z,78
2023-03-04T12:46:05.254Z,80
2023-03-04T13:01:05.388Z,70
2023-03-04T13:16:04.967Z,62
2023-03-04T13:31:05.021Z,60
2023-03-04T13:46:05.539Z,61
2023-03-04T14:01:05.877Z,58
2023-03-04T14:16:04.941Z,33
2023-03-04T14:31:05.041Z,37
2023-03-04T14:46:05.560Z,47
2023-03-04T15:01:04.845Z,47
2023-03-04T15:16:04.912Z,40
2023-03-04T15:31:04.942Z,52
2023-03-04T15:46:05.345Z,68
2023-03-04T16:01:05.807Z,58
2023-03-04T16:16:05.371Z,60
2023-03-04T16:31:05.519Z,63
2023-03-04T16:46:05.676Z,57
2023-03-04T17:01:05.727Z,64
2023-03-04T17:16:04.699Z,64
2023-03-04T17:31:05.004Z,61
2023-03-04T17:46:05.237Z,64
2023-03-04T18:01:05.331Z,63
2023-03-04T18:16:05.361Z,66
2023-03-04T18:31:05.270Z,54
2023-03-04T18:46:05.648Z,56
2023-03-04T19:01:05.749Z,47
2023-03-04T19:16:04.826Z,56
2023-03-04T19:31:05.284Z,57
2023-03-04T19:46:05.401Z,57
2023-03-04T20:01:05.744Z,59
2023-03-04T20:16:05.189Z,69
2023-03-04T20:31:05.277Z,45
2023-03-04T20:46:05.066Z,50
2023-03-04T21:01:05.318Z,34
2023-03-04T21:16:06.187Z,11
2023-03-04T21:31:05.610Z,14
2023-03-04T21:46:04.838Z,15
2023-03-04T22:01:05.072Z,31
2023-03-04T22:16:05.281Z,32
2023-03-04T22:31:04.626Z,24
2023-03-04T22:46:05.051Z,26
2023-03-04T23:01:05.423Z,24
2023-03-04T23:16:05.795Z,23
2023-03-04T23:31:06.431Z,20
2023-03-04T23:46:06.259Z,23
